createdAt,value
2018-07-16T00:00:26.433Z,100977.58
2018-07-16T00:02:54.789Z,100977.25
2018-07-16T00:05:23.121Z,100981.64
2018-07-16T00:07:51.462Z,100981.38
2018-07-16T00:10:19.828Z,100984.02
2018-07-16T00:12:48.162Z,100977.41
2018-07-16T00:15:16.544Z,100972.05
2018-07-16T00:17:45.802Z,100979.52
2018-07-16T00:20:14.133Z,100976.03
2018-07-16T00:22:42.470Z,100981.64
2018-07-16T00:25:17.675Z,100977.98
2018-07-16T00:27:47.381Z,100980.56
2018-07-16T00:30:16.714Z,100976.19
2018-07-16T00:32:45.837Z,100970.97
2018-07-16T00:35:14.193Z,100974.56
2018-07-16T00:37:42.518Z,100965.80
2018-07-16T00:40:10.874Z,100966.07
2018-07-16T00:42:39.197Z,100972.23
2018-07-16T00:45:08.629Z,100968.56
2018-07-16T00:47:37.915Z,100974.10
2018-07-16T00:50:08.250Z,100974.17
2018-07-16T00:52:36.597Z,100971.16
2018-07-16T00:55:04.968Z,100973.94
2018-07-16T00:57:33.304Z,100977.41
2018-07-16T01:00:01.666Z,100978.78
2018-07-16T01:02:29.999Z,100978.89
2018-07-16T01:04:58.370Z,100975.16
2018-07-16T01:07:26.704Z,100975.89
2018-07-16T01:09:55.041Z,100972.67
2018-07-16T01:12:23.377Z,100974.34
2018-07-16T01:14:51.708Z,100968.67
2018-07-16T01:17:21.176Z,100974.89
2018-07-16T01:19:50.389Z,100968.92
2018-07-16T01:22:19.601Z,100970.18
2018-07-16T01:24:48.953Z,100968.38
2018-07-16T01:27:18.171Z,100964.67
2018-07-16T01:29:47.025Z,100976.22
2018-07-16T01:32:16.342Z,100972.66
2018-07-16T01:34:46.333Z,100974.73
2018-07-16T01:37:15.856Z,100982.13
2018-07-16T01:39:44.191Z,100971.51
2018-07-16T01:42:12.521Z,100973.19
2018-07-16T01:44:40.851Z,100968.34
2018-07-16T01:47:09.173Z,100972.50
2018-07-16T01:49:37.916Z,100967.89
2018-07-16T01:52:07.185Z,100964.34
2018-07-16T01:54:37.100Z,100974.91
2018-07-16T01:57:06.281Z,100977.42
2018-07-16T01:59:36.552Z,100968.34
2018-07-16T02:02:06.185Z,100971.75
2018-07-16T02:04:34.529Z,100983.28
2018-07-16T02:07:03.868Z,100978.08
2018-07-16T02:09:32.209Z,100977.39
2018-07-16T02:12:01.337Z,100975.17
2018-07-16T02:14:30.665Z,100977.33
2018-07-16T02:16:59.876Z,100974.39
2018-07-16T02:19:28.208Z,100973.59
2018-07-16T02:21:56.588Z,100971.58
2018-07-16T02:24:24.917Z,100969.65
2018-07-16T02:26:54.220Z,100969.90
2018-07-16T02:29:23.448Z,100972.98
2018-07-16T02:31:52.786Z,100969.98
2018-07-16T02:34:22.120Z,100968.20
2018-07-16T02:36:51.328Z,100964.48
2018-07-16T02:39:20.569Z,100965.27
2018-07-16T02:41:50.115Z,100966.13
2018-07-16T02:44:19.506Z,100961.59
2018-07-16T02:46:48.817Z,100961.38
2018-07-16T02:49:19.076Z,100961.53
2018-07-16T02:51:49.777Z,100961.16
2018-07-16T02:54:19.117Z,100960.08
2018-07-16T02:56:50.098Z,100963.32
2018-07-16T02:59:19.042Z,100961.64
2018-07-16T03:01:49.856Z,100961.22
2018-07-16T03:04:18.645Z,100961.63
2018-07-16T03:06:49.415Z,100959.78
2018-07-16T03:09:18.741Z,100956.77
2018-07-16T03:11:48.509Z,100965.25
2018-07-16T03:14:17.481Z,100962.37
2018-07-16T03:16:46.840Z,100965.78
2018-07-16T03:19:16.586Z,100961.25
2018-07-16T03:21:44.905Z,100962.69
2018-07-16T03:24:13.242Z,100963.41
2018-07-16T03:26:42.380Z,100948.16
2018-07-16T03:29:10.711Z,100954.95
2018-07-16T03:31:39.925Z,100958.13
2018-07-16T03:34:09.337Z,100954.59
2018-07-16T03:36:38.577Z,100961.20
2018-07-16T03:39:10.080Z,100963.80
2018-07-16T03:41:39.273Z,100964.86
2018-07-16T03:44:08.297Z,100958.05
2018-07-16T03:46:38.502Z,100963.64
2018-07-16T03:49:07.320Z,100963.73
2018-07-16T03:51:35.684Z,100964.80
2018-07-16T03:54:04.025Z,100959.36
2018-07-16T03:56:33.236Z,100962.48
2018-07-16T03:59:01.633Z,100966.63
2018-07-16T04:01:30.048Z,100968.58
2018-07-16T04:03:58.346Z,100964.55
2018-07-16T04:06:26.677Z,100964.41
2018-07-16T04:08:55.073Z,100966.32
2018-07-16T04:11:24.313Z,100973.23
2018-07-16T04:13:53.525Z,100972.00
2018-07-16T04:16:22.735Z,100970.19
2018-07-16T04:18:51.077Z,100962.63
2018-07-16T04:21:20.408Z,100961.52
2018-07-16T04:23:49.665Z,100960.77
2018-07-16T04:26:19.063Z,100960.03
2018-07-16T04:28:48.507Z,100961.77
2018-07-16T04:31:17.454Z,100959.66
2018-07-16T04:33:46.750Z,100959.80
2018-07-16T04:36:22.268Z,100957.95
2018-07-16T04:38:50.625Z,100955.06
2018-07-16T04:41:18.967Z,100957.08
2018-07-16T04:43:48.400Z,100957.01
2018-07-16T04:46:18.412Z,100958.29
2018-07-16T04:48:47.766Z,100955.80
2018-07-16T04:51:17.365Z,100956.87
2018-07-16T04:53:47.061Z,100956.94
2018-07-16T04:56:17.858Z,100945.41
2018-07-16T04:58:47.838Z,100952.42
2018-07-16T05:01:16.985Z,100951.61
2018-07-16T05:03:45.893Z,100950.78
2018-07-16T05:06:14.808Z,100952.96
2018-07-16T05:08:43.285Z,100956.63
2018-07-16T05:11:12.502Z,100947.77
2018-07-16T05:13:40.821Z,100957.52
2018-07-16T05:16:09.249Z,100957.09
2018-07-16T05:18:38.165Z,100958.67
2018-07-16T05:21:07.144Z,100953.03
2018-07-16T05:23:35.534Z,100946.02
2018-07-16T05:26:04.823Z,100949.53
2018-07-16T05:28:33.176Z,100945.91
2018-07-16T05:31:01.498Z,100952.28
2018-07-16T05:33:29.898Z,100949.88
2018-07-16T05:35:58.222Z,100952.01
2018-07-16T05:38:26.596Z,100948.98
2018-07-16T05:40:55.805Z,100956.18
2018-07-16T05:43:25.101Z,100950.89
2018-07-16T05:45:54.258Z,100948.50
2018-07-16T05:48:22.596Z,100950.34
2018-07-16T05:50:50.945Z,100941.81
2018-07-16T05:53:19.314Z,100945.08
2018-07-16T05:55:48.529Z,100944.22
2018-07-16T05:58:18.926Z,100932.25
2018-07-16T06:00:48.630Z,100931.69
2018-07-16T06:03:18.912Z,100927.42
2018-07-16T06:05:48.661Z,100924.22
2018-07-16T06:08:19.052Z,100927.55
2018-07-16T06:10:48.472Z,100928.25
2018-07-16T06:13:18.849Z,100926.66
2018-07-16T06:15:47.781Z,100928.97
2018-07-16T06:18:18.067Z,100924.64
2018-07-16T06:20:47.146Z,100931.15
2018-07-16T06:23:15.496Z,100929.02
2018-07-16T06:25:43.998Z,100928.55
2018-07-16T06:28:12.320Z,100927.05
2018-07-16T06:30:40.936Z,100929.08
2018-07-16T06:33:09.297Z,100926.78
2018-07-16T06:35:38.668Z,100931.77
2018-07-16T06:38:07.377Z,100931.45
2018-07-16T06:40:35.825Z,100935.45
2018-07-16T06:43:04.155Z,100926.48
2018-07-16T06:45:32.490Z,100928.31
2018-07-16T06:48:00.874Z,100931.13
2018-07-16T06:50:29.194Z,100928.19
2018-07-16T06:52:57.513Z,100928.19
2018-07-16T06:55:26.001Z,100922.20
2018-07-16T06:57:54.331Z,100917.04
2018-07-16T07:00:22.663Z,100917.19
2018-07-16T07:02:50.986Z,100917.88
2018-07-16T07:05:19.314Z,100919.48
2018-07-16T07:07:48.969Z,100914.52
2018-07-16T07:10:18.370Z,100913.88
2018-07-16T07:12:47.681Z,100918.81
2018-07-16T07:15:17.668Z,100910.48
2018-07-16T07:17:48.108Z,100899.85
2018-07-16T07:20:16.511Z,100905.80
2018-07-16T07:22:44.855Z,100903.16
2018-07-16T07:25:13.249Z,100909.23
2018-07-16T07:27:41.569Z,100903.09
2018-07-16T07:30:10.937Z,100902.67
2018-07-16T07:32:39.361Z,100901.59
2018-07-16T07:35:08.284Z,100902.89
2018-07-16T07:37:37.238Z,100902.89
2018-07-16T07:40:05.863Z,100901.49
2018-07-16T07:42:34.346Z,100907.50
2018-07-16T07:45:02.663Z,100904.69
2018-07-16T07:47:31.054Z,100907.54
2018-07-16T07:49:59.437Z,100910.12
2018-07-16T07:52:27.769Z,100908.03
2018-07-16T07:54:56.314Z,100911.97
2018-07-16T07:57:24.466Z,100910.54
2018-07-16T07:59:52.801Z,100907.47
2018-07-16T08:02:21.157Z,100907.78
2018-07-16T08:04:49.582Z,100904.91
2018-07-16T08:07:18.418Z,100905.02
2018-07-16T08:09:47.396Z,100899.94
2018-07-16T08:12:16.753Z,100898.42
2018-07-16T08:14:45.163Z,100897.95
2018-07-16T08:17:13.530Z,100899.69
2018-07-16T08:19:41.862Z,100894.95
2018-07-16T08:22:10.212Z,100895.59
2018-07-16T08:24:39.649Z,100887.07
2018-07-16T08:27:10.224Z,100888.32
2018-07-16T08:29:39.148Z,100891.07
2018-07-16T08:32:08.877Z,100892.39
2018-07-16T08:34:38.420Z,100889.80
2018-07-16T08:37:07.420Z,100889.35
2018-07-16T08:39:37.388Z,100885.98
2018-07-16T08:42:06.376Z,100888.22
2018-07-16T08:44:34.708Z,100886.38
2018-07-16T08:47:04.105Z,100881.61
2018-07-16T08:49:32.443Z,100885.95
2018-07-16T08:52:01.681Z,100881.17
2018-07-16T08:54:31.033Z,100886.71
2018-07-16T08:57:00.276Z,100882.91
2018-07-16T08:59:29.624Z,100886.59
2018-07-16T09:01:59.005Z,100889.75
2018-07-16T09:04:28.226Z,100890.42
2018-07-16T09:06:57.515Z,100887.92
2018-07-16T09:09:26.725Z,100888.27
2018-07-16T09:11:55.053Z,100884.81
2018-07-16T09:14:23.383Z,100887.59
2018-07-16T09:16:51.729Z,100882.88
2018-07-16T09:19:20.080Z,100879.05
2018-07-16T09:21:49.405Z,100880.69
2018-07-16T09:24:18.799Z,100877.84
2018-07-16T09:26:48.341Z,100877.21
2018-07-16T09:29:18.522Z,100868.48
2018-07-16T09:31:47.777Z,100861.34
2018-07-16T09:34:18.347Z,100869.57
2018-07-16T09:36:47.626Z,100866.70
2018-07-16T09:39:22.326Z,100856.40
2018-07-16T09:41:50.650Z,100868.42
2018-07-16T09:44:19.131Z,100868.88
2018-07-16T09:46:48.491Z,100862.30
2018-07-16T09:49:18.673Z,100856.69
2018-07-16T09:51:47.592Z,100849.41
2018-07-16T09:54:16.734Z,100849.36
2018-07-16T09:56:45.740Z,100851.98
2018-07-16T09:59:14.102Z,100848.45
2018-07-16T10:01:43.377Z,100843.23
2018-07-16T10:04:12.245Z,100843.34
2018-07-16T10:06:40.621Z,100842.94
2018-07-16T10:09:10.300Z,100842.04
2018-07-16T10:11:39.294Z,100848.13
2018-07-16T10:14:08.404Z,100848.67
2018-07-16T10:16:37.417Z,100833.86
2018-07-16T10:19:06.560Z,100846.21
2018-07-16T10:21:34.886Z,100842.59
2018-07-16T10:24:03.229Z,100838.28
2018-07-16T10:26:31.637Z,100833.33
2018-07-16T10:28:59.979Z,100830.34
2018-07-16T10:31:28.414Z,100819.84
2018-07-16T10:33:56.784Z,100819.81
2018-07-16T10:36:25.113Z,100826.09
2018-07-16T10:38:53.433Z,100816.11
2018-07-16T10:41:21.745Z,100814.88
2018-07-16T10:43:50.069Z,100811.22
2018-07-16T10:46:18.735Z,100813.64
2018-07-16T10:48:47.612Z,100816.27
2018-07-16T10:51:17.141Z,100808.95
2018-07-16T10:53:46.930Z,100818.47
2018-07-16T10:56:16.881Z,100806.78
2018-07-16T10:58:45.342Z,100799.86
2018-07-16T11:01:13.778Z,100796.23
2018-07-16T11:03:42.241Z,100802.32
2018-07-16T11:06:17.343Z,100804.64
2018-07-16T11:08:46.780Z,100797.55
2018-07-16T11:11:17.081Z,100798.67
2018-07-16T11:13:45.458Z,100804.67
2018-07-16T11:16:13.929Z,100792.33
2018-07-16T11:18:42.323Z,100785.70
2018-07-16T11:21:11.573Z,100788.70
2018-07-16T11:23:39.884Z,100786.20
2018-07-16T11:26:09.200Z,100779.53
2018-07-16T11:28:38.400Z,100780.09
2018-07-16T11:31:08.103Z,100773.12
2018-07-16T11:33:37.043Z,100759.53
2018-07-16T11:36:05.421Z,100768.50
2018-07-16T11:38:33.868Z,100782.23
2018-07-16T11:41:02.305Z,100780.23
2018-07-16T11:43:30.618Z,100776.34
2018-07-16T11:45:58.942Z,100781.29
2018-07-16T11:48:27.593Z,100764.97
2018-07-16T11:50:55.958Z,100762.69
2018-07-16T11:53:24.273Z,100763.62
2018-07-16T11:55:52.596Z,100756.03
2018-07-16T11:58:20.908Z,100754.69
2018-07-16T12:00:52.447Z,100743.66
2018-07-16T12:03:20.801Z,100741.11
2018-07-16T12:05:49.129Z,100751.72
2018-07-16T12:08:17.990Z,100737.08
2018-07-16T12:10:47.438Z,100740.27
2018-07-16T12:13:16.816Z,100735.99
2018-07-16T12:15:45.869Z,100735.97
2018-07-16T12:18:15.793Z,100740.03
2018-07-16T12:20:44.109Z,100729.73
2018-07-16T12:23:12.461Z,100733.56
2018-07-16T12:25:40.801Z,100723.66
2018-07-16T12:28:09.122Z,100717.72
2018-07-16T12:30:39.229Z,100711.55
2018-07-16T12:33:08.208Z,100714.47
2018-07-16T12:35:36.629Z,100707.73
2018-07-16T12:38:04.940Z,100702.63
2018-07-16T12:40:33.266Z,100702.70
2018-07-16T12:43:01.672Z,100699.71
2018-07-16T12:45:30.813Z,100690.64
2018-07-16T12:47:59.214Z,100678.49
2018-07-16T12:50:27.588Z,100680.09
2018-07-16T12:52:55.901Z,100675.36
2018-07-16T12:55:24.238Z,100674.27
2018-07-16T12:57:52.745Z,100667.80
2018-07-16T13:00:21.064Z,100660.47
2018-07-16T13:02:50.231Z,100661.19
2018-07-16T13:05:18.559Z,100669.20
2018-07-16T13:07:47.696Z,100657.14
2018-07-16T13:10:17.003Z,100662.12
2018-07-16T13:12:46.024Z,100654.44
2018-07-16T13:15:14.379Z,100660.66
2018-07-16T13:17:42.695Z,100646.09
2018-07-16T13:20:12.054Z,100643.72
2018-07-16T13:22:40.364Z,100642.78
2018-07-16T13:25:09.557Z,100635.65
2018-07-16T13:27:38.797Z,100630.78
2018-07-16T13:30:09.311Z,100635.88
2018-07-16T13:32:38.181Z,100621.07
2018-07-16T13:35:07.680Z,100626.22
2018-07-16T13:37:36.048Z,100621.34
2018-07-16T13:40:04.397Z,100616.45
2018-07-16T13:42:32.712Z,100611.98
2018-07-16T13:45:01.033Z,100607.30
2018-07-16T13:47:29.354Z,100609.72
2018-07-16T13:49:57.673Z,100617.39
2018-07-16T13:52:25.985Z,100608.22
2018-07-16T13:54:55.117Z,100603.68
2018-07-16T13:57:23.627Z,100603.70
2018-07-16T13:59:51.969Z,100602.34
2018-07-16T14:02:20.374Z,100602.05
2018-07-16T14:04:48.686Z,100593.18
2018-07-16T14:07:19.002Z,100601.68
2018-07-16T14:09:48.322Z,100597.17
2018-07-16T14:12:18.078Z,100589.52
2018-07-16T14:14:46.731Z,100582.89
2018-07-16T14:17:15.050Z,100584.23
2018-07-16T14:19:43.397Z,100578.06
2018-07-16T14:22:11.718Z,100583.80
2018-07-16T14:24:40.065Z,100577.94
2018-07-16T14:27:09.197Z,100576.53
2018-07-16T14:29:38.560Z,100577.49
2018-07-16T14:32:07.777Z,100573.73
2018-07-16T14:34:36.341Z,100567.64
2018-07-16T14:37:04.762Z,100569.88
2018-07-16T14:39:34.004Z,100570.77
2018-07-16T14:42:02.313Z,100569.59
2018-07-16T14:44:31.644Z,100578.23
2018-07-16T14:46:59.980Z,100574.05
2018-07-16T14:49:28.297Z,100565.41
2018-07-16T14:51:56.625Z,100554.84
2018-07-16T14:54:25.009Z,100557.34
2018-07-16T14:56:53.321Z,100543.51
2018-07-16T14:59:21.630Z,100552.22
2018-07-16T15:01:49.961Z,100556.24
2018-07-16T15:04:20.188Z,100553.21
2018-07-16T15:06:48.558Z,100546.37
2018-07-16T15:09:17.633Z,100560.57
2018-07-16T15:11:46.603Z,100555.47
2018-07-16T15:14:15.057Z,100554.09
2018-07-16T15:16:43.512Z,100556.70
2018-07-16T15:19:11.857Z,100546.33
2018-07-16T15:21:40.303Z,100543.41
2018-07-16T15:24:09.440Z,100540.59
2018-07-16T15:26:39.636Z,100549.93
2018-07-16T15:29:08.715Z,100545.34
2018-07-16T15:31:38.904Z,100537.12
2018-07-16T15:34:07.276Z,100537.88
2018-07-16T15:36:37.289Z,100534.63
2018-07-16T15:39:07.629Z,100535.16
2018-07-16T15:41:38.245Z,100530.77
2018-07-16T15:44:08.719Z,100530.58
2018-07-16T15:46:38.072Z,100540.58
2018-07-16T15:49:07.673Z,100532.30
2018-07-16T15:51:37.614Z,100539.97
2018-07-16T15:54:06.727Z,100537.38
2018-07-16T15:56:35.064Z,100533.22
2018-07-16T15:59:04.236Z,100526.59
2018-07-16T16:01:33.558Z,100530.08
2018-07-16T16:04:02.724Z,100532.51
2018-07-16T16:06:31.049Z,100527.43
2018-07-16T16:08:59.431Z,100529.53
2018-07-16T16:11:27.836Z,100531.80
2018-07-16T16:13:56.176Z,100529.46
2018-07-16T16:16:25.474Z,100526.83
2018-07-16T16:18:54.646Z,100524.95
2018-07-16T16:21:23.855Z,100531.75
2018-07-16T16:23:53.113Z,100523.36
2018-07-16T16:26:22.586Z,100519.84
2018-07-16T16:28:51.824Z,100516.70
2018-07-16T16:31:20.223Z,100509.52
2018-07-16T16:33:48.564Z,100516.95
2018-07-16T16:36:18.285Z,100519.86
2018-07-16T16:38:48.073Z,100517.28
2018-07-16T16:41:18.301Z,100520.02
2018-07-16T16:43:48.801Z,100515.05
2018-07-16T16:46:19.373Z,100513.05
2018-07-16T16:48:49.517Z,100511.34
2018-07-16T16:51:18.648Z,100515.47
2018-07-16T16:53:49.297Z,100513.23
2018-07-16T16:56:18.701Z,100508.78
2018-07-16T16:58:49.389Z,100508.62
2018-07-16T17:01:18.933Z,100500.75
2018-07-16T17:03:48.237Z,100503.30
2018-07-16T17:06:18.724Z,100503.15
2018-07-16T17:08:48.916Z,100495.69
2018-07-16T17:11:18.458Z,100498.59
2018-07-16T17:13:48.982Z,100497.48
2018-07-16T17:16:19.312Z,100498.59
2018-07-16T17:18:48.513Z,100488.91
2018-07-16T17:21:17.996Z,100490.63
2018-07-16T17:23:47.101Z,100485.89
2018-07-16T17:26:17.618Z,100486.57
2018-07-16T17:28:47.832Z,100491.78
2018-07-16T17:31:17.829Z,100494.53
2018-07-16T17:33:48.149Z,100492.83
2018-07-16T17:36:18.152Z,100491.53
2018-07-16T17:38:48.461Z,100487.80
2018-07-16T17:41:17.681Z,100484.37
2018-07-16T17:43:48.488Z,100481.14
2018-07-16T17:46:18.487Z,100485.70
2018-07-16T17:48:47.838Z,100489.20
2018-07-16T17:51:18.262Z,100490.73
2018-07-16T17:53:47.863Z,100496.30
2018-07-16T17:56:17.665Z,100491.91
2018-07-16T17:58:48.122Z,100494.33
2018-07-16T18:01:16.979Z,100495.27
2018-07-16T18:03:46.992Z,100495.00
2018-07-16T18:06:17.966Z,100499.01
2018-07-16T18:08:48.365Z,100500.19
2018-07-16T18:11:18.062Z,100511.09
2018-07-16T18:13:47.197Z,100504.33
2018-07-16T18:16:16.985Z,100518.67
2018-07-16T18:18:47.094Z,100513.12
2018-07-16T18:21:15.417Z,100514.55
2018-07-16T18:23:44.737Z,100513.09
2018-07-16T18:26:13.982Z,100515.98
2018-07-16T18:28:43.353Z,100515.56
2018-07-16T18:31:11.674Z,100523.36
2018-07-16T18:33:40.874Z,100518.55
2018-07-16T18:36:09.886Z,100523.90
2018-07-16T18:38:40.604Z,100522.86
2018-07-16T18:41:10.114Z,100520.80
2018-07-16T18:43:39.413Z,100525.02
2018-07-16T18:46:07.841Z,100522.45
2018-07-16T18:48:36.779Z,100525.02
2018-07-16T18:51:05.265Z,100525.64
2018-07-16T18:53:33.604Z,100534.09
2018-07-16T18:56:02.955Z,100532.43
2018-07-16T18:58:31.293Z,100547.64
2018-07-16T19:00:59.852Z,100567.41
2018-07-16T19:03:28.204Z,100576.05
2018-07-16T19:05:56.576Z,100572.53
2018-07-16T19:08:24.905Z,100583.70
2018-07-16T19:10:53.246Z,100587.48
2018-07-16T19:13:22.486Z,100590.83
2018-07-16T19:15:51.835Z,100602.54
2018-07-16T19:18:20.167Z,100587.67
2018-07-16T19:20:48.551Z,100584.66
2018-07-16T19:23:18.061Z,100598.16
2018-07-16T19:25:47.017Z,100597.59
2018-07-16T19:28:15.949Z,100596.22
2018-07-16T19:30:44.281Z,100604.80
2018-07-16T19:33:12.605Z,100608.62
2018-07-16T19:35:41.134Z,100596.45
2018-07-16T19:38:09.425Z,100597.73
2018-07-16T19:43:10.433Z,100597.45
2018-07-16T19:45:39.676Z,100593.50
2018-07-16T19:48:08.905Z,100593.97
2018-07-16T19:50:37.829Z,100598.56
2018-07-16T19:53:06.836Z,100599.45
2018-07-16T19:55:35.174Z,100595.70
2018-07-16T19:58:03.913Z,100590.29
2018-07-16T20:00:32.260Z,100593.17
2018-07-16T20:03:00.621Z,100585.69
2018-07-16T20:05:28.996Z,100584.40
2018-07-16T20:07:57.332Z,100582.02
2018-07-16T20:10:25.814Z,100584.20
2018-07-16T20:12:54.304Z,100581.82
2018-07-16T20:15:22.727Z,100586.35
2018-07-16T20:17:51.011Z,100580.91
2018-07-16T20:20:19.390Z,100568.90
2018-07-16T20:22:48.821Z,100566.63
2018-07-16T20:25:17.729Z,100556.90
2018-07-16T20:27:47.687Z,100556.84
2018-07-16T20:30:18.039Z,100555.25
2018-07-16T20:32:48.386Z,100553.92
2018-07-16T20:35:18.373Z,100551.39
2018-07-16T20:37:47.378Z,100547.48
2018-07-16T20:40:16.517Z,100551.77
2018-07-16T20:42:44.847Z,100560.14
2018-07-16T20:45:13.189Z,100560.86
2018-07-16T20:47:41.537Z,100557.24
2018-07-16T20:50:09.878Z,100557.92
2018-07-16T20:52:39.332Z,100561.95
2018-07-16T20:55:08.852Z,100560.98
2018-07-16T20:57:37.857Z,100566.84
2018-07-16T21:00:06.889Z,100567.17
2018-07-16T21:02:35.220Z,100564.86
2018-07-16T21:05:03.561Z,100560.09
2018-07-16T21:07:31.921Z,100562.09
2018-07-16T21:10:00.250Z,100559.25
2018-07-16T21:12:28.585Z,100567.05
2018-07-16T21:14:56.902Z,100569.41
2018-07-16T21:17:26.243Z,100569.61
2018-07-16T21:19:57.445Z,100567.44
2018-07-16T21:22:25.944Z,100566.80
2018-07-16T21:24:55.162Z,100569.12
2018-07-16T21:27:24.376Z,100569.12
2018-07-16T21:29:52.733Z,100570.11
2018-07-16T21:32:22.029Z,100570.78
2018-07-16T21:34:51.168Z,100568.08
2018-07-16T21:37:20.832Z,100573.55
2018-07-16T21:39:49.164Z,100572.20
2018-07-16T21:42:18.508Z,100565.25
2018-07-16T21:44:47.364Z,100566.05
2018-07-16T21:47:17.025Z,100571.67
2018-07-16T21:49:45.419Z,100573.53
2018-07-16T21:52:14.654Z,100566.30
2018-07-16T21:54:44.073Z,100579.23
2018-07-16T21:57:12.434Z,100575.91
2018-07-16T21:59:40.756Z,100579.90
2018-07-16T22:02:10.241Z,100577.38
2018-07-16T22:04:39.528Z,100576.84
2018-07-16T22:07:08.416Z,100573.05
2018-07-16T22:09:38.981Z,100566.93
2018-07-16T22:12:08.978Z,100568.42
2018-07-16T22:14:37.409Z,100568.93
2018-07-16T22:17:07.059Z,100571.11
2018-07-16T22:19:35.400Z,100570.44
2018-07-16T22:22:03.817Z,100564.81
2018-07-16T22:24:32.196Z,100567.80
2018-07-16T22:27:00.580Z,100573.27
2018-07-16T22:29:28.916Z,100578.72
2018-07-16T22:31:57.253Z,100576.40
2018-07-16T22:34:25.574Z,100581.06
2018-07-16T22:36:53.897Z,100578.59
2018-07-16T22:39:22.277Z,100576.73
2018-07-16T22:41:50.621Z,100572.14
2018-07-16T22:44:18.963Z,100570.48
2018-07-16T22:46:48.372Z,100566.67
2018-07-16T22:49:17.521Z,100564.17
2018-07-16T22:51:47.037Z,100564.03
2018-07-16T22:54:15.976Z,100565.84
2018-07-16T22:56:44.309Z,100561.55
2018-07-16T22:59:13.553Z,100560.56
2018-07-16T23:01:41.893Z,100556.92
2018-07-16T23:04:10.217Z,100571.80
2018-07-16T23:06:39.780Z,100569.81
2018-07-16T23:09:09.292Z,100571.32
2018-07-16T23:11:38.097Z,100577.28
2018-07-16T23:14:06.915Z,100574.78
2018-07-16T23:16:35.305Z,100572.63
2018-07-16T23:19:03.669Z,100583.72
2018-07-16T23:21:32.045Z,100585.22
2018-07-16T23:24:00.365Z,100575.93
2018-07-16T23:26:28.697Z,100575.45
2018-07-16T23:28:57.256Z,100576.78
2018-07-16T23:31:25.581Z,100572.80
2018-07-16T23:33:53.909Z,100571.31
2018-07-16T23:36:22.246Z,100565.84
2018-07-16T23:38:50.590Z,100564.17
2018-07-16T23:41:18.924Z,100569.30
2018-07-16T23:43:47.846Z,100570.28
2018-07-16T23:46:18.381Z,100573.77
2018-07-16T23:48:47.680Z,100564.33
2018-07-16T23:51:16.831Z,100561.47
2018-07-16T23:53:46.818Z,100561.12
2018-07-16T23:56:16.746Z,100551.20
2018-07-16T23:58:46.546Z,100554.05
